Time;durP1;ratioP1;P1;durP2;ratioP2;P2;SDS_P1;SDS_P2;PMS_P1;PMS_P2;Temp;Humidity;BMP_temperature;BMP_pressure;BME280_temperature;BME280_humidity;BME280_pressure;Samples;Min_cycle;Max_cycle;Signal;HPM_P1;HPM_P2
2022/02/01 00:04:42;;;;;;;2.03;1.60;;;;;;;5.77;67.00;100225.56;10406447;28;20165;-69
2022/02/01 00:10:12;;;;;;;3.20;2.08;;;;;;;5.79;66.75;100239.50;10430813;28;20103;-70
2022/02/01 00:20:51;;;;;;;2.28;2.08;;;;;;;5.96;67.14;100231.41;10404089;28;20064;-69
2022/02/01 00:36:38;;;;;;;2.40;2.20;;;;;;;6.09;67.76;100259.75;10400760;28;20042;-70
2022/02/01 00:41:47;;;;;;;2.55;2.15;;;;;;;6.14;67.09;100262.94;10400703;28;20054;-70
2022/02/01 00:46:48;;;;;;;2.42;1.92;;;;;;;6.07;67.64;100259.00;10400133;28;20488;-70
2022/02/01 00:51:50;;;;;;;1.45;1.35;;;;;;;5.98;69.01;100263.06;10406811;28;20068;-71
2022/02/01 00:56:52;;;;;;;2.97;1.65;;;;;;;5.85;69.29;100254.97;10400560;28;20146;-71
2022/02/01 01:01:54;;;;;;;2.08;1.05;;;;;;;5.73;69.49;100271.56;10402687;28;20500;-70
2022/02/01 01:06:55;;;;;;;0.93;0.68;;;;;;;5.47;68.91;100282.75;10404826;28;20104;-70
2022/02/01 01:11:58;;;;;;;1.13;0.63;;;;;;;5.13;70.21;100299.69;10398980;28;20063;-70
2022/02/01 01:43:47;;;;;;;5.60;1.40;;;;;;;5.25;69.95;100306.03;10399244;28;20059;-70
2022/02/01 01:54:14;;;;;;;2.47;0.82;;;;;;;5.64;70.78;100358.34;10404300;28;20045;-72
2022/02/01 01:59:16;;;;;;;4.90;1.50;;;;;;;5.69;70.33;100366.00;10406532;28;20075;-73
2022/02/01 02:04:18;;;;;;;3.85;1.38;;;;;;;5.63;70.38;100351.34;10405435;28;20041;-71
2022/02/01 02:09:19;;;;;;;5.60;1.73;;;;;;;5.58;70.72;100363.13;10407748;28;20056;-70
2022/02/01 02:14:21;;;;;;;4.72;2.03;;;;;;;5.68;70.36;100379.31;10405159;28;22624;-71
2022/02/01 02:19:26;;;;;;;5.10;2.00;;;;;;;5.66;70.16;100385.50;10469712;28;20107;-70
2022/02/01 02:24:30;;;;;;;12.00;3.40;;;;;;;5.71;70.21;100406.38;10435053;28;20068;-74
2022/02/01 02:29:32;;;;;;;13.13;3.08;;;;;;;5.59;67.48;100397.38;10417748;28;20072;-71
2022/02/01 02:34:34;;;;;;;14.23;4.13;;;;;;;5.21;66.92;100400.41;10402927;28;20063;-70
2022/02/01 02:39:47;;;;;;;12.93;3.95;;;;;;;5.23;65.97;100395.88;10413147;28;20057;-72
2022/02/01 02:45:05;;;;;;;11.30;3.70;;;;;;;5.03;65.74;100406.66;10407153;28;20072;-71
2022/02/01 02:50:07;;;;;;;10.18;4.30;;;;;;;4.81;65.98;100413.13;10408743;28;20044;-70
2022/02/01 02:55:08;;;;;;;12.27;3.35;;;;;;;4.92;66.08;100429.25;10404096;28;20057;-72
2022/02/01 03:00:10;;;;;;;11.80;3.25;;;;;;;4.98;64.73;100424.56;10404952;28;20056;-70
2022/02/01 03:05:11;;;;;;;11.57;3.60;;;;;;;4.91;64.06;100430.16;10404899;28;20728;-71
2022/02/01 03:10:13;;;;;;;14.10;3.55;;;;;;;4.62;62.86;100442.25;10410469;28;20064;-70
2022/02/01 03:20:28;;;;;;;15.23;4.30;;;;;;;4.80;63.94;100445.69;10404286;28;20049;-70
2022/02/01 03:25:30;;;;;;;14.30;3.75;;;;;;;4.69;63.30;100461.25;10411989;28;20484;-70
2022/02/01 03:30:31;;;;;;;11.68;3.38;;;;;;;4.70;63.38;100479.63;10404757;28;20052;-70
2022/02/01 03:35:33;;;;;;;13.68;3.85;;;;;;;4.68;62.63;100488.56;10401728;28;20049;-71
2022/02/01 03:40:35;;;;;;;12.00;3.85;;;;;;;4.69;62.93;100487.63;10435094;28;20593;-72
2022/02/01 03:45:36;;;;;;;8.50;3.38;;;;;;;4.81;63.03;100494.88;10402189;28;20202;-71
2022/02/01 03:50:38;;;;;;;8.65;4.00;;;;;;;4.57;62.54;100489.13;10403187;28;20055;-71
2022/02/01 03:55:39;;;;;;;10.68;3.53;;;;;;;4.67;63.21;100486.84;10403821;28;20450;-70
2022/02/01 04:00:41;;;;;;;13.02;4.55;;;;;;;4.72;64.37;100490.09;10401955;28;20055;-71
2022/02/01 04:05:42;;;;;;;12.15;4.10;;;;;;;4.88;61.78;100491.00;10401900;28;20321;-70
2022/02/01 04:10:45;;;;;;;14.60;4.18;;;;;;;4.84;62.37;100492.09;10399555;28;20049;-71
2022/02/01 04:15:47;;;;;;;14.20;4.45;;;;;;;4.94;62.27;100495.09;10402529;28;20992;-70
2022/02/01 04:20:49;;;;;;;12.85;5.38;;;;;;;5.05;62.92;100499.81;10402851;28;20374;-69
2022/02/01 04:25:51;;;;;;;16.42;5.68;;;;;;;5.06;63.73;100498.84;10432662;28;20052;-71
2022/02/01 04:30:52;;;;;;;17.67;4.93;;;;;;;5.11;64.20;100510.03;10397977;28;20068;-71
2022/02/01 04:35:54;;;;;;;6.75;3.45;;;;;;;5.05;64.72;100531.47;10398778;28;20044;-75
2022/02/01 04:40:55;;;;;;;13.70;5.25;;;;;;;4.96;66.34;100535.44;10409350;28;20040;-72
2022/02/01 04:45:56;;;;;;;13.13;4.80;;;;;;;4.71;68.34;100523.50;10407331;28;20053;-71
2022/02/01 04:50:58;;;;;;;10.93;4.45;;;;;;;4.70;69.48;100532.38;10398691;28;20071;-72
2022/02/01 04:55:59;;;;;;;13.88;4.65;;;;;;;4.71;70.08;100535.84;10404882;28;20047;-71
2022/02/01 05:01:01;;;;;;;14.48;5.30;;;;;;;4.63;70.34;100525.72;10402499;28;20111;-68
2022/02/01 05:06:04;;;;;;;13.45;4.75;;;;;;;4.74;71.10;100527.78;10432259;28;20049;-71
2022/02/01 05:11:05;;;;;;;12.45;5.32;;;;;;;4.55;73.02;100520.00;10404809;28;20049;-73
2022/02/01 05:16:20;;;;;;;16.92;4.78;;;;;;;4.30;74.32;100523.00;10398077;28;20060;-72
2022/02/01 05:21:24;;;;;;;11.35;4.13;;;;;;;4.28;74.25;100502.00;10404725;28;20047;-70
2022/02/01 05:26:27;;;;;;;10.38;4.18;;;;;;;4.39;74.54;100506.72;10411620;28;20053;-71
2022/02/01 05:31:29;;;;;;;16.60;4.00;;;;;;;4.40;74.46;100511.91;10432926;28;20080;-71
2022/02/01 05:36:31;;;;;;;13.45;4.55;;;;;;;4.42;74.32;100530.28;10434654;28;20045;-71
2022/02/01 05:41:32;;;;;;;14.70;4.47;;;;;;;4.54;74.58;100521.75;10432211;28;20045;-70
2022/02/01 05:46:35;;;;;;;13.75;3.78;;;;;;;4.80;74.06;100540.66;10405848;28;20130;-72
2022/02/01 05:51:37;;;;;;;12.27;4.28;;;;;;;4.77;73.19;100549.59;10410047;28;20057;-71
2022/02/01 05:56:38;;;;;;;11.10;4.05;;;;;;;4.78;72.24;100510.88;10390850;28;20053;-72
2022/02/01 06:01:40;;;;;;;11.43;3.53;;;;;;;4.68;72.36;100522.84;10405930;28;20681;-70
2022/02/01 06:06:41;;;;;;;13.43;3.78;;;;;;;4.82;72.02;100517.72;10407037;28;20052;-70
2022/02/01 06:11:43;;;;;;;13.30;4.45;;;;;;;4.85;71.86;100532.50;10390265;28;20075;-71
2022/02/01 06:16:44;;;;;;;11.75;3.63;;;;;;;4.95;71.36;100566.25;10409619;28;20526;-72
2022/02/01 06:21:46;;;;;;;13.77;3.95;;;;;;;4.93;71.37;100552.28;10406742;28;20249;-70
2022/02/01 06:26:47;;;;;;;9.25;3.35;;;;;;;4.95;71.05;100560.97;10368858;28;21033;-71
2022/02/01 06:31:49;;;;;;;9.32;3.17;;;;;;;4.78;70.81;100568.91;10365406;28;21380;-72
2022/02/01 06:36:50;;;;;;;8.40;3.58;;;;;;;4.86;70.89;100566.72;10360728;28;20620;-71
2022/02/01 06:41:52;;;;;;;11.23;2.85;;;;;;;5.02;70.62;100552.75;10394277;28;20052;-71
2022/02/01 06:46:53;;;;;;;13.55;3.42;;;;;;;4.97;70.69;100566.19;10408412;28;20151;-72
2022/02/01 06:51:54;;;;;;;11.57;3.65;;;;;;;5.00;69.83;100520.28;10412663;28;20057;-70
2022/02/01 06:56:56;;;;;;;9.82;3.10;;;;;;;4.93;70.07;100519.78;10406995;28;20344;-69
2022/02/01 07:02:01;;;;;;;11.68;3.70;;;;;;;4.89;69.52;100528.78;10428630;28;20037;-70
2022/02/01 07:07:03;;;;;;;11.63;3.28;;;;;;;4.81;69.21;100529.19;10437968;28;20048;-71
2022/02/01 07:12:05;;;;;;;13.07;2.90;;;;;;;4.87;69.31;100539.41;10432572;28;20516;-70
2022/02/01 07:17:07;;;;;;;10.57;2.83;;;;;;;5.14;68.57;100541.53;10438938;28;20057;-68
2022/02/01 07:22:08;;;;;;;13.52;3.00;;;;;;;5.05;67.95;100520.91;10406466;28;20055;-70
2022/02/01 07:27:22;;;;;;;11.90;3.28;;;;;;;4.81;68.36;100539.72;10405977;28;20052;-70
2022/02/01 07:32:24;;;;;;;8.47;2.60;;;;;;;4.80;68.13;100538.00;10409241;28;20139;-72
2022/02/01 07:37:25;;;;;;;7.57;2.13;;;;;;;4.78;67.87;100531.97;10420455;28;20379;-72
2022/02/01 07:42:27;;;;;;;7.85;2.10;;;;;;;4.70;67.70;100528.88;10443243;28;20146;-71
2022/02/01 07:47:32;;;;;;;8.55;2.45;;;;;;;4.82;68.40;100512.44;10419454;28;20143;-70
2022/02/01 07:52:34;;;;;;;9.55;2.65;;;;;;;4.87;68.08;100520.94;10418086;28;23000;-72
2022/02/01 07:57:37;;;;;;;10.05;3.15;;;;;;;4.73;67.64;100519.03;10434067;28;20457;-71
2022/02/01 08:02:38;;;;;;;11.02;2.55;;;;;;;4.75;67.98;100548.81;10429505;28;20065;-69
2022/02/01 08:07:54;;;;;;;7.63;2.15;;;;;;;4.86;67.95;100561.44;10435695;28;20041;-70
2022/02/01 08:18:15;;;;;;;8.32;2.20;;;;;;;4.96;67.54;100512.53;10428807;28;20308;-70
2022/02/01 08:23:16;;;;;;;5.97;1.85;;;;;;;4.86;67.81;100513.13;10431929;28;20072;-69
2022/02/01 08:28:19;;;;;;;6.20;2.42;;;;;;;4.85;68.45;100517.53;10432556;28;20507;-70
2022/02/01 08:33:22;;;;;;;10.45;2.50;;;;;;;4.89;68.59;100526.97;10427090;28;20084;-72
2022/02/01 08:38:24;;;;;;;10.68;2.40;;;;;;;5.00;68.78;100530.84;10418671;28;20470;-70
2022/02/01 08:43:25;;;;;;;6.95;2.33;;;;;;;4.94;68.57;100524.97;10426586;28;20281;-70
2022/02/01 08:48:26;;;;;;;5.90;2.80;;;;;;;5.05;68.93;100519.13;10428114;28;20065;-70
2022/02/01 08:53:35;;;;;;;9.70;2.92;;;;;;;5.01;68.69;100492.97;10430354;28;20120;-70
2022/02/01 08:58:37;;;;;;;6.03;2.30;;;;;;;4.99;69.07;100500.13;10407171;28;20600;-72
2022/02/01 09:03:38;;;;;;;5.50;2.20;;;;;;;4.95;69.18;100507.34;10423034;28;20556;-72
2022/02/01 09:08:40;;;;;;;8.63;2.30;;;;;;;4.94;69.36;100495.94;10408998;28;20052;-70
2022/02/01 09:13:43;;;;;;;4.80;1.85;;;;;;;4.87;70.19;100499.84;10414176;28;20056;-70
2022/02/01 09:18:44;;;;;;;9.73;2.78;;;;;;;4.73;70.53;100476.84;10412875;28;20130;-70
2022/02/01 09:23:46;;;;;;;7.80;2.85;;;;;;;4.83;70.61;100461.38;10413169;28;20052;-70
2022/02/01 09:28:49;;;;;;;7.32;2.53;;;;;;;4.84;70.40;100478.91;10414138;28;20049;-70
2022/02/01 09:33:50;;;;;;;6.25;2.13;;;;;;;4.97;70.02;100484.41;10446325;28;20124;-70
2022/02/01 09:38:54;;;;;;;6.28;2.85;;;;;;;4.99;69.90;100465.84;10408326;28;20620;-71
2022/02/01 09:43:55;;;;;;;6.57;2.90;;;;;;;4.86;69.76;100440.09;10410230;28;20047;-70
2022/02/01 09:48:58;;;;;;;8.77;2.50;;;;;;;5.10;69.35;100431.78;10400547;28;20439;-69
2022/02/01 09:54:00;;;;;;;6.72;2.60;;;;;;;5.21;68.42;100408.31;10402605;28;20052;-70
2022/02/01 09:59:17;;;;;;;6.55;3.03;;;;;;;5.14;67.93;100428.06;10402103;28;20184;-70
2022/02/01 10:04:18;;;;;;;8.23;2.75;;;;;;;5.11;68.24;100417.66;10400280;28;20262;-71
2022/02/01 10:09:20;;;;;;;9.23;2.67;;;;;;;5.01;67.55;100432.28;10405148;28;20064;-70
2022/02/01 10:14:28;;;;;;;9.55;2.05;;;;;;;5.09;66.45;100409.00;10407338;28;20057;-71
2022/02/01 10:19:29;;;;;;;5.25;2.97;;;;;;;5.07;66.89;100405.56;10411747;28;20066;-69
2022/02/01 10:24:41;;;;;;;7.93;2.30;;;;;;;5.16;66.06;100399.78;10409448;28;20045;-70
2022/02/01 10:30:10;;;;;;;8.35;2.58;;;;;;;5.08;66.55;100380.91;10407495;28;20052;-69
2022/02/01 10:35:26;;;;;;;7.35;3.10;;;;;;;5.06;66.17;100372.19;10404704;28;20044;-69
2022/02/01 10:40:47;;;;;;;11.60;2.70;;;;;;;5.08;66.18;100354.50;10410091;28;20052;-70
2022/02/01 10:46:10;;;;;;;7.80;2.40;;;;;;;5.03;66.59;100332.78;10405962;28;20180;-73
2022/02/01 10:51:17;;;;;;;6.40;2.58;;;;;;;4.89;66.68;100300.13;10404756;28;20079;-69
2022/02/01 10:56:20;;;;;;;7.05;2.40;;;;;;;4.99;67.02;100297.00;10408275;28;20048;-69
2022/02/01 11:01:25;;;;;;;6.43;2.60;;;;;;;4.83;68.31;100276.72;10421212;28;20106;-71
2022/02/01 11:06:27;;;;;;;11.35;2.70;;;;;;;4.89;68.91;100275.53;10406963;28;20049;-70
2022/02/01 11:11:28;;;;;;;9.98;2.15;;;;;;;4.92;69.48;100270.97;10408396;28;20057;-69
2022/02/01 11:16:30;;;;;;;5.40;2.63;;;;;;;4.66;71.25;100251.31;10409270;28;20118;-70
2022/02/01 11:21:50;;;;;;;6.60;2.85;;;;;;;4.62;72.99;100236.59;10407107;28;20064;-71
2022/02/01 11:27:03;;;;;;;6.13;2.60;;;;;;;4.70;74.69;100241.44;10410404;28;20066;-70
2022/02/01 11:32:05;;;;;;;5.25;2.30;;;;;;;4.64;75.38;100239.16;10363141;28;20060;-71
2022/02/01 11:37:27;;;;;;;8.25;3.03;;;;;;;4.52;75.22;100211.69;10365011;28;20053;-68
2022/02/01 11:42:33;;;;;;;8.07;3.97;;;;;;;4.39;76.38;100198.34;10365511;28;20056;-70
2022/02/01 11:47:37;;;;;;;6.45;3.05;;;;;;;4.45;76.40;100195.38;10363896;28;20515;-70
2022/02/01 11:52:47;;;;;;;8.83;2.50;;;;;;;4.39;76.91;100196.56;10381293;28;20069;-71
2022/02/01 11:57:51;;;;;;;3.67;2.63;;;;;;;4.48;77.31;100182.00;10387506;28;20351;-71
2022/02/01 12:03:00;;;;;;;8.83;3.13;;;;;;;4.40;77.59;100171.06;10393674;28;20075;-71
2022/02/01 12:08:15;;;;;;;6.15;3.20;;;;;;;4.41;78.03;100157.81;10373607;28;20492;-71
2022/02/01 12:13:19;;;;;;;5.15;2.80;;;;;;;4.38;78.47;100133.38;10369160;28;20082;-70
2022/02/01 12:18:34;;;;;;;5.22;2.70;;;;;;;4.41;78.13;100127.94;10365996;28;20052;-70
2022/02/01 12:23:35;;;;;;;4.85;3.20;;;;;;;4.42;78.38;100127.00;10362043;28;20468;-70
2022/02/01 12:28:37;;;;;;;5.47;2.63;;;;;;;4.47;77.67;100101.22;10365632;28;20060;-69
2022/02/01 12:33:42;;;;;;;2.80;2.30;;;;;;;4.42;78.28;100103.28;10366763;28;20060;-69
2022/02/01 12:38:48;;;;;;;4.75;2.45;;;;;;;4.53;77.88;100086.84;10402268;28;20075;-70
2022/02/01 12:49:02;;;;;;;4.00;2.20;;;;;;;4.68;77.32;100064.00;10401020;28;20045;-70
2022/02/01 12:54:03;;;;;;;3.90;2.35;;;;;;;4.65;77.69;100045.75;10404916;28;20692;-70
2022/02/01 12:59:05;;;;;;;2.30;1.85;;;;;;;4.56;78.91;100026.91;10432534;28;20057;-68
2022/02/01 13:04:07;;;;;;;2.97;1.35;;;;;;;4.51;80.07;100034.22;10399989;28;20526;-72
2022/02/01 13:25:05;;;;;;;3.40;1.43;;;;;;;4.39;85.58;99982.22;10405534;28;20194;-69
2022/02/01 13:30:10;;;;;;;2.83;1.00;;;;;;;4.25;86.05;99957.53;10403044;28;20053;-70
2022/02/01 13:35:12;;;;;;;1.65;1.20;;;;;;;4.15;87.12;99937.09;10431184;28;20051;-70
2022/02/01 13:40:25;;;;;;;1.60;0.90;;;;;;;4.27;86.82;99925.84;10364312;28;20501;-70
2022/02/01 13:45:35;;;;;;;0.80;0.60;;;;;;;4.38;86.46;99912.00;10374511;28;20151;-71
2022/02/01 13:50:36;;;;;;;1.70;1.00;;;;;;;4.40;86.78;99894.34;10371903;28;20502;-71
2022/02/01 13:55:40;;;;;;;1.20;0.88;;;;;;;4.43;87.00;99888.88;10371787;28;20092;-71
2022/02/01 14:00:46;;;;;;;1.05;0.70;;;;;;;4.38;87.22;99869.84;10377988;28;20089;-71
2022/02/01 14:06:01;;;;;;;0.98;0.70;;;;;;;4.42;87.21;99859.00;10358280;28;20075;-69
2022/02/01 14:11:23;;;;;;;0.67;0.63;;;;;;;4.53;86.80;99842.53;10409653;28;20061;-72
2022/02/01 14:26:45;;;;;;;1.88;0.90;;;;;;;4.36;88.72;99803.22;10412903;28;20053;-72
2022/02/01 14:37:14;;;;;;;1.05;0.75;;;;;;;4.27;89.86;99788.81;10409972;28;20228;-72
2022/02/01 14:47:36;;;;;;;1.10;0.95;;;;;;;4.22;89.70;99801.44;10411664;28;20550;-69
2022/02/01 14:52:38;;;;;;;0.77;0.60;;;;;;;4.27;90.52;99790.63;10415005;28;20052;-69
2022/02/01 15:13:30;;;;;;;1.42;1.20;;;;;;;4.17;92.31;99756.91;10435437;28;20075;-71
2022/02/01 15:18:51;;;;;;;3.65;1.42;;;;;;;4.18;92.62;99752.50;10416660;28;20057;-72
2022/02/01 15:23:53;;;;;;;1.50;1.15;;;;;;;4.21;92.85;99747.88;10454834;28;20136;-71
2022/02/01 15:28:54;;;;;;;1.50;1.40;;;;;;;4.28;92.57;99721.16;10431455;28;20140;-70
2022/02/01 15:33:59;;;;;;;1.52;0.95;;;;;;;4.22;92.74;99710.06;10437583;28;20598;-70
2022/02/01 16:00:28;;;;;;;1.23;1.08;;;;;;;4.39;93.60;99682.63;10403853;28;20562;-70
2022/02/01 16:05:30;;;;;;;1.33;0.80;;;;;;;4.39;94.13;99666.00;10401119;28;20052;-70
2022/02/01 16:10:39;;;;;;;1.45;0.60;;;;;;;4.43;93.84;99681.50;10436827;28;20885;-70
2022/02/01 16:15:41;;;;;;;1.35;1.05;;;;;;;4.41;94.73;99686.03;10402435;28;20497;-71
2022/02/01 16:20:42;;;;;;;1.10;0.85;;;;;;;4.52;94.01;99692.38;10405531;28;20445;-70
2022/02/01 16:25:44;;;;;;;1.08;0.90;;;;;;;4.58;93.74;99676.19;10403886;28;20063;-70
2022/02/01 16:30:45;;;;;;;0.65;0.52;;;;;;;4.65;93.38;99677.47;10405325;28;20055;-71
2022/02/01 16:35:47;;;;;;;1.13;0.55;;;;;;;4.66;93.95;99679.16;10396483;28;20064;-71
2022/02/01 16:40:50;;;;;;;1.77;0.52;;;;;;;4.69;93.70;99664.94;10407962;28;20048;-70
2022/02/01 16:45:51;;;;;;;1.50;0.60;;;;;;;4.76;92.84;99679.44;10401714;28;20136;-71
2022/02/01 16:51:11;;;;;;;0.85;0.32;;;;;;;4.85;92.38;99673.53;10406440;28;20045;-70
2022/02/01 16:56:19;;;;;;;0.73;0.40;;;;;;;4.89;91.87;99653.91;10406170;28;20045;-72
2022/02/01 17:01:37;;;;;;;0.98;0.50;;;;;;;4.91;92.04;99662.59;10436462;28;20053;-70
2022/02/01 17:06:39;;;;;;;1.08;0.68;;;;;;;5.01;92.10;99660.16;10402650;28;20498;-70
2022/02/01 17:21:55;;;;;;;1.70;0.75;;;;;;;5.32;91.76;99635.19;10411970;28;20878;-71
2022/02/01 17:26:57;;;;;;;1.00;0.63;;;;;;;5.37;91.69;99631.41;10410911;28;20108;-70
2022/02/01 17:31:58;;;;;;;1.95;0.70;;;;;;;5.43;91.94;99649.44;10408658;28;20352;-70
2022/02/01 17:37:00;;;;;;;1.20;0.60;;;;;;;5.47;92.10;99632.47;10411744;28;20063;-69
2022/02/01 17:42:01;;;;;;;1.38;0.60;;;;;;;5.60;91.41;99649.13;10455046;28;20100;-71
2022/02/01 17:47:06;;;;;;;1.05;0.50;;;;;;;5.64;91.33;99632.13;10445568;28;20770;-71
2022/02/01 17:57:12;;;;;;;0.60;0.40;;;;;;;5.77;90.87;99644.47;10426267;28;20143;-70
2022/02/01 18:02:15;;;;;;;1.30;0.40;;;;;;;5.82;90.73;99658.19;10415908;28;20350;-72
2022/02/01 18:07:19;;;;;;;0.80;0.55;;;;;;;5.80;91.06;99660.09;10418614;28;20144;-71
2022/02/01 18:12:30;;;;;;;1.15;0.73;;;;;;;5.85;91.50;99636.84;10457206;28;20221;-73
2022/02/01 18:17:32;;;;;;;1.48;0.60;;;;;;;5.81;92.65;99641.50;10431232;28;20049;-72
2022/02/01 18:22:33;;;;;;;0.70;0.45;;;;;;;5.77;93.35;99620.72;10446549;28;20075;-70
2022/02/01 18:27:37;;;;;;;1.30;0.80;;;;;;;5.84;93.18;99640.47;10412639;28;20500;-70
2022/02/01 18:32:38;;;;;;;1.33;0.82;;;;;;;5.94;92.67;99636.19;10411430;28;20051;-69
2022/02/01 18:37:42;;;;;;;1.80;0.90;;;;;;;6.03;92.40;99677.00;10433626;28;20108;-72
2022/02/01 18:47:59;;;;;;;2.83;1.40;;;;;;;6.22;91.60;99647.47;10405815;28;20415;-71
2022/02/01 18:53:43;;;;;;;3.53;1.55;;;;;;;6.26;91.58;99630.44;10413563;28;20040;-71
2022/02/01 18:58:51;;;;;;;1.30;1.20;;;;;;;6.32;91.97;99651.16;10407395;28;20129;-70
2022/02/01 19:09:29;;;;;;;2.45;1.70;;;;;;;6.47;92.33;99633.31;10406646;28;20735;-72
2022/02/01 19:14:39;;;;;;;2.13;1.60;;;;;;;6.57;92.93;99644.06;10412839;28;20051;-72
2022/02/01 19:19:41;;;;;;;2.20;1.52;;;;;;;6.63;93.24;99672.69;10411684;28;20218;-71
2022/02/01 19:24:43;;;;;;;2.53;1.70;;;;;;;6.75;92.08;99678.88;10424797;28;20067;-72
2022/02/01 19:29:45;;;;;;;3.70;2.10;;;;;;;6.76;91.03;99675.28;10444048;28;20623;-70
2022/02/01 19:34:47;;;;;;;3.75;2.08;;;;;;;6.82;90.76;99668.72;10405743;28;20056;-72
2022/02/01 19:39:49;;;;;;;2.53;2.10;;;;;;;6.75;90.14;99673.59;10406514;28;20427;-71
2022/02/01 19:44:56;;;;;;;5.80;2.25;;;;;;;6.77;90.25;99678.75;10405887;28;20175;-72
2022/02/01 19:49:59;;;;;;;3.47;1.95;;;;;;;6.76;90.40;99672.63;10407206;28;20058;-70
2022/02/01 19:55:00;;;;;;;6.28;2.80;;;;;;;6.82;90.35;99674.00;10404799;28;20056;-70
2022/02/01 20:00:07;;;;;;;5.93;2.10;;;;;;;6.86;89.27;99680.72;10404525;28;20045;-71
2022/02/01 20:05:09;;;;;;;5.90;3.05;;;;;;;7.07;89.15;99665.91;10402928;28;20542;-70
2022/02/01 20:10:13;;;;;;;4.05;2.80;;;;;;;7.27;88.73;99666.19;10404814;28;20083;-70
2022/02/01 20:15:19;;;;;;;4.13;2.40;;;;;;;7.31;87.23;99665.00;10404361;28;20901;-70
2022/02/01 20:20:23;;;;;;;5.13;2.35;;;;;;;7.23;86.80;99672.69;10398954;28;20482;-69
2022/02/01 20:25:28;;;;;;;8.25;2.90;;;;;;;7.28;87.22;99706.75;10395740;28;21450;-71
2022/02/01 20:30:31;;;;;;;;;;;;;;;7.39;86.62;99720.88;10388584;28;20057;-70
2022/02/01 20:35:32;;;;;;;7.68;3.40;;;;;;;7.43;86.08;99724.13;10401210;28;19951;-72
2022/02/01 20:40:37;;;;;;;5.80;3.72;;;;;;;7.55;85.48;99731.16;10407135;28;20053;-70
2022/02/01 20:45:39;;;;;;;8.98;3.40;;;;;;;7.59;84.46;99740.53;10402984;28;20052;-71
2022/02/01 20:50:43;;;;;;;5.57;3.33;;;;;;;7.69;83.07;99714.19;10399598;28;20661;-69
2022/02/01 20:55:46;;;;;;;9.02;3.83;;;;;;;7.75;82.17;99729.59;10404416;28;20538;-70
2022/02/01 21:00:51;;;;;;;6.97;3.13;;;;;;;7.85;80.22;99736.84;10396614;28;20784;-70
2022/02/01 21:05:53;;;;;;;7.80;2.90;;;;;;;7.87;78.56;99741.06;10401998;28;20052;-69
2022/02/01 21:10:54;;;;;;;5.32;3.53;;;;;;;7.91;78.78;99699.25;10393594;28;20225;-70
2022/02/01 21:16:02;;;;;;;4.70;2.30;;;;;;;7.91;78.22;99736.38;10402859;28;20057;-70
2022/02/01 21:21:03;;;;;;;5.95;2.85;;;;;;;7.93;78.38;99747.72;10404646;28;20048;-72
2022/02/01 21:26:05;;;;;;;6.97;2.22;;;;;;;8.00;78.73;99735.69;10412549;28;20078;-69
2022/02/01 21:31:06;;;;;;;4.63;2.40;;;;;;;8.02;78.93;99746.16;10405265;28;20055;-71
2022/02/01 21:36:07;;;;;;;4.68;2.13;;;;;;;8.03;78.27;99751.34;10398833;28;20102;-72
2022/02/01 21:41:09;;;;;;;4.22;3.00;;;;;;;8.05;78.47;99749.41;10433889;28;20578;-71
2022/02/01 21:46:10;;;;;;;5.72;2.33;;;;;;;8.03;77.91;99747.81;10428432;28;20539;-71
2022/02/01 21:51:12;;;;;;;7.68;2.05;;;;;;;8.01;78.17;99753.25;10400106;28;20068;-70
2022/02/01 21:56:15;;;;;;;7.03;2.50;;;;;;;8.10;78.63;99757.81;10403985;28;20175;-71
2022/02/01 22:01:20;;;;;;;5.07;2.80;;;;;;;8.19;78.58;99763.38;10411528;28;20431;-70
2022/02/01 22:06:22;;;;;;;8.85;3.58;;;;;;;8.18;77.43;99777.59;10433123;28;20044;-71
2022/02/01 22:11:24;;;;;;;11.43;3.10;;;;;;;8.21;77.23;99769.41;10404657;28;21496;-71
2022/02/01 22:16:26;;;;;;;12.15;2.83;;;;;;;8.22;77.23;99744.59;10399276;28;20460;-72
2022/02/01 22:21:28;;;;;;;11.00;3.85;;;;;;;8.22;77.10;99718.06;10390627;28;20063;-73
2022/02/01 22:26:31;;;;;;;10.20;3.30;;;;;;;8.21;77.23;99721.69;10401763;28;20139;-71
2022/02/01 22:31:35;;;;;;;8.90;2.70;;;;;;;8.22;77.49;99731.31;10389073;28;20044;-71
2022/02/01 22:36:36;;;;;;;8.00;2.85;;;;;;;8.13;78.24;99730.25;10398234;28;20061;-70
2022/02/01 22:41:38;;;;;;;6.07;2.63;;;;;;;8.11;78.45;99759.53;10403753;28;20139;-70
2022/02/01 22:46:39;;;;;;;10.65;3.22;;;;;;;8.20;78.21;99759.78;10434362;28;20041;-72
2022/02/01 22:51:41;;;;;;;9.40;3.00;;;;;;;8.21;77.88;99732.28;10413752;28;20275;-70
2022/02/01 22:56:43;;;;;;;11.27;3.40;;;;;;;8.21;77.27;99733.16;10406366;28;20569;-70
2022/02/01 23:01:45;;;;;;;8.85;3.17;;;;;;;8.23;76.79;99743.63;10408001;28;20053;-71
2022/02/01 23:06:50;;;;;;;10.48;3.58;;;;;;;8.19;76.82;99756.28;10408946;28;20110;-70
2022/02/01 23:22:20;;;;;;;10.13;2.75;;;;;;;8.12;78.50;99847.84;10400734;28;20048;-70
2022/02/01 23:27:23;;;;;;;10.70;2.45;;;;;;;7.79;79.31;99841.50;10407402;28;20151;-70
2022/02/01 23:32:37;;;;;;;7.05;2.53;;;;;;;7.76;80.66;99815.22;10397293;28;20045;-71
2022/02/01 23:43:15;;;;;;;7.18;2.33;;;;;;;7.65;79.43;99816.03;10401058;28;20257;-71
2022/02/01 23:48:16;;;;;;;5.95;1.70;;;;;;;7.75;76.57;99838.25;10438886;28;20045;-70
2022/02/01 23:53:17;;;;;;;12.10;3.90;;;;;;;7.86;77.22;99828.63;10399119;28;20270;-70
2022/02/01 23:58:30;;;;;;;7.72;2.75;;;;;;;7.90;75.88;99819.50;10398314;28;20049;-70
